Terminal Aerodrome Forecast
Issued by NWS

Home | Current Version | Previous Version | Text Only | Print | Product List | Glossary On
Versions: 1 2 3 4 5 6 7 8 9 10 11 12 13 14 15
000
FTUS46 KMTR 211120
TAFSJC
TAF
KSJC 211120Z 2112/2212 VRB04KT P6SM OVC015
     FM211600 VRB03KT P6SM FEW015 SCT120
     FM211800 30011KT P6SM SCT120
     FM220300 31008KT P6SM FEW012 BKN150
     FM220700 31003KT P6SM BKN012=

USA.gov is the U.S. government's official web portal to all federal, state and local government web resources and services.